createdAt,value
2018-12-10T00:02:02.828Z,100254.19
2018-12-10T00:04:30.651Z,100272.17
2018-12-10T00:06:58.151Z,100279.23
2018-12-10T00:09:25.663Z,100274.91
2018-12-10T00:11:53.212Z,100282.41
2018-12-10T00:14:20.720Z,100287.27
2018-12-10T00:16:48.265Z,100281.20
2018-12-10T00:19:15.776Z,100288.77
2018-12-10T00:21:43.328Z,100284.56
2018-12-10T00:24:10.845Z,100292.09
2018-12-10T00:26:38.366Z,100294.50
2018-12-10T00:29:05.918Z,100292.27
2018-12-10T00:31:33.435Z,100290.22
2018-12-10T00:34:00.972Z,100294.09
2018-12-10T00:36:28.485Z,100289.06
2018-12-10T00:38:56.016Z,100300.97
2018-12-10T00:41:23.594Z,100308.72
2018-12-10T00:43:51.097Z,100305.98
2018-12-10T00:46:18.879Z,100307.84
2018-12-10T00:48:46.411Z,100316.21
2018-12-10T00:51:13.929Z,100315.77
2018-12-10T00:53:41.464Z,100318.34
2018-12-10T00:56:08.975Z,100319.45
2018-12-10T00:58:36.654Z,100330.69
2018-12-10T01:01:04.163Z,100330.51
2018-12-10T01:03:31.687Z,100329.80
2018-12-10T01:05:59.231Z,100331.95
2018-12-10T01:08:26.871Z,100337.16
2018-12-10T01:10:54.556Z,100340.25
2018-12-10T01:13:22.056Z,100341.05
2018-12-10T01:15:49.572Z,100346.55
2018-12-10T01:18:17.116Z,100339.64
2018-12-10T01:20:44.631Z,100355.50
2018-12-10T01:23:12.183Z,100361.38
2018-12-10T01:25:39.696Z,100364.53
2018-12-10T01:28:07.213Z,100360.23
2018-12-10T01:30:34.767Z,100354.88
2018-12-10T01:33:02.273Z,100357.11
2018-12-10T01:35:29.823Z,100364.51
2018-12-10T01:37:57.331Z,100376.53
2018-12-10T01:40:24.975Z,100369.09
2018-12-10T01:42:52.503Z,100376.05
2018-12-10T01:45:20.040Z,100372.94
2018-12-10T01:47:47.583Z,100378.24
2018-12-10T01:50:15.098Z,100384.78
2018-12-10T01:52:42.763Z,100388.38
2018-12-10T01:55:10.268Z,100391.87
2018-12-10T01:57:37.825Z,100389.27
2018-12-10T02:00:06.875Z,100395.77
2018-12-10T02:02:34.389Z,100402.81
2018-12-10T02:05:02.150Z,100409.38
2018-12-10T02:07:29.758Z,100411.61
2018-12-10T02:09:57.271Z,100415.08
2018-12-10T02:12:24.824Z,100421.25
2018-12-10T02:14:52.341Z,100418.98
2018-12-10T02:17:19.893Z,100415.94
2018-12-10T02:19:47.422Z,100422.41
2018-12-10T02:22:14.941Z,100415.06
2018-12-10T02:24:42.505Z,100428.76
2018-12-10T02:27:10.019Z,100426.97
2018-12-10T02:29:37.579Z,100435.28
2018-12-10T02:32:05.100Z,100437.06
2018-12-10T02:34:32.624Z,100441.96
2018-12-10T02:37:00.182Z,100447.76
2018-12-10T02:39:27.703Z,100442.83
2018-12-10T02:41:55.274Z,100451.31
2018-12-10T02:44:22.799Z,100454.38
2018-12-10T02:46:50.340Z,100460.02
2018-12-10T02:49:17.872Z,100472.79
2018-12-10T02:51:45.419Z,100473.72
2018-12-10T02:54:13.088Z,100476.84
2018-12-10T02:56:40.647Z,100488.30
2018-12-10T02:59:08.187Z,100499.30
2018-12-10T03:01:35.731Z,100479.41
2018-12-10T03:04:03.239Z,100481.11
2018-12-10T03:06:30.885Z,100474.70
2018-12-10T03:08:58.410Z,100470.77
2018-12-10T03:11:25.919Z,100474.63
2018-12-10T03:13:53.476Z,100475.93
2018-12-10T03:16:20.980Z,100486.95
2018-12-10T03:18:48.564Z,100490.47
2018-12-10T03:21:16.085Z,100495.78
2018-12-10T03:23:43.599Z,100499.36
2018-12-10T03:26:11.137Z,100509.41
2018-12-10T03:28:38.648Z,100508.14
2018-12-10T03:31:06.554Z,100504.55
2018-12-10T03:33:34.144Z,100509.03
2018-12-10T03:36:01.669Z,100510.34
2018-12-10T03:38:29.211Z,100513.48
2018-12-10T03:40:56.724Z,100510.41
2018-12-10T03:43:24.583Z,100512.58
2018-12-10T03:45:52.098Z,100514.34
2018-12-10T03:48:19.613Z,100509.95
2018-12-10T03:50:47.151Z,100513.45
2018-12-10T03:53:14.695Z,100518.38
2018-12-10T03:55:42.614Z,100517.61
2018-12-10T03:58:10.142Z,100521.57
2018-12-10T04:00:37.681Z,100529.08
2018-12-10T04:03:05.223Z,100539.19
2018-12-10T04:05:32.741Z,100539.63
2018-12-10T04:08:00.288Z,100549.31
2018-12-10T04:10:27.804Z,100538.33
2018-12-10T04:12:55.328Z,100536.13
2018-12-10T04:15:22.884Z,100538.31
2018-12-10T04:17:50.396Z,100541.00
2018-12-10T04:20:17.950Z,100542.24
2018-12-10T04:22:45.503Z,100537.51
2018-12-10T04:25:13.015Z,100544.40
2018-12-10T04:27:40.586Z,100544.06
2018-12-10T04:30:08.111Z,100545.41
2018-12-10T04:32:35.790Z,100542.41
2018-12-10T04:35:03.510Z,100545.94
2018-12-10T04:37:31.077Z,100546.30
2018-12-10T04:42:32.352Z,100563.03
2018-12-10T04:45:00.021Z,100570.06
2018-12-10T04:47:27.772Z,100566.54
2018-12-10T04:49:55.290Z,100569.23
2018-12-10T04:52:22.837Z,100572.75
2018-12-10T04:54:50.345Z,100571.81
2018-12-10T04:57:17.911Z,100574.44
2018-12-10T04:59:52.598Z,100577.07
2018-12-10T05:02:14.988Z,100582.80
2018-12-10T05:04:42.648Z,100588.50
2018-12-10T05:07:10.168Z,100587.15
2018-12-10T05:09:37.748Z,100593.37
2018-12-10T05:12:05.256Z,100594.66
2018-12-10T05:14:32.764Z,100595.59
2018-12-10T05:17:00.308Z,100593.39
2018-12-10T05:19:27.828Z,100603.52
2018-12-10T05:21:55.470Z,100598.16
2018-12-10T05:24:23.003Z,100610.90
2018-12-10T05:26:50.520Z,100606.55
2018-12-10T05:29:18.053Z,100606.09
2018-12-10T05:31:45.592Z,100610.48
2018-12-10T05:34:13.484Z,100614.89
2018-12-10T05:36:41.008Z,100624.11
2018-12-10T05:39:08.519Z,100624.11
2018-12-10T05:41:36.080Z,100619.25
2018-12-10T05:44:03.623Z,100626.27
2018-12-10T05:46:31.157Z,100629.39
2018-12-10T05:48:58.738Z,100632.47
2018-12-10T05:51:26.257Z,100632.89
2018-12-10T05:53:53.775Z,100638.61
2018-12-10T05:56:21.432Z,100640.39
2018-12-10T05:58:48.960Z,100641.25
2018-12-10T06:01:16.480Z,100647.84
2018-12-10T06:03:44.034Z,100651.81
2018-12-10T06:06:11.561Z,100647.89
2018-12-10T06:08:39.111Z,100653.52
2018-12-10T06:11:06.795Z,100653.98
2018-12-10T06:13:34.327Z,100663.22
2018-12-10T06:16:01.872Z,100655.77
2018-12-10T06:18:29.445Z,100651.79
2018-12-10T06:20:56.959Z,100662.36
2018-12-10T06:23:24.523Z,100661.92
2018-12-10T06:25:52.109Z,100664.16
2018-12-10T06:28:19.943Z,100665.45
2018-12-10T06:30:47.460Z,100674.27
2018-12-10T06:33:14.972Z,100665.48
2018-12-10T06:35:42.570Z,100680.41
2018-12-10T06:38:10.087Z,100679.55
2018-12-10T06:40:37.644Z,100681.77
2018-12-10T06:43:05.184Z,100686.14
2018-12-10T06:45:32.819Z,100678.23
2018-12-10T06:48:00.341Z,100681.73
2018-12-10T06:50:28.504Z,100690.98
2018-12-10T06:52:56.108Z,100699.34
2018-12-10T06:55:23.692Z,100700.23
2018-12-10T06:57:51.231Z,100706.38
2018-12-10T07:00:18.751Z,100702.83
2018-12-10T07:02:46.311Z,100700.20
2018-12-10T07:05:13.843Z,100702.84
2018-12-10T07:07:41.398Z,100714.69
2018-12-10T07:10:09.044Z,100710.30
2018-12-10T07:12:36.568Z,100724.38
2018-12-10T07:15:05.543Z,100720.39
2018-12-10T07:17:33.067Z,100727.87
2018-12-10T07:20:00.589Z,100737.11
2018-12-10T07:22:28.132Z,100739.25
2018-12-10T07:24:55.648Z,100739.70
2018-12-10T07:27:23.219Z,100741.03
2018-12-10T07:29:51.515Z,100740.16
2018-12-10T07:32:19.047Z,100741.02
2018-12-10T07:34:46.594Z,100741.39
2018-12-10T07:37:14.112Z,100751.12
2018-12-10T07:39:41.664Z,100748.03
2018-12-10T07:42:09.175Z,100748.05
2018-12-10T07:44:36.698Z,100743.67
2018-12-10T07:47:04.245Z,100742.40
2018-12-10T07:49:31.759Z,100742.84
2018-12-10T07:51:59.330Z,100738.87
2018-12-10T07:54:26.855Z,100737.98
2018-12-10T07:56:54.399Z,100740.19
2018-12-10T07:59:21.933Z,100751.19
2018-12-10T08:01:49.505Z,100756.03
2018-12-10T08:04:17.056Z,100753.81
2018-12-10T08:06:44.599Z,100763.05
2018-12-10T08:09:12.167Z,100765.25
2018-12-10T08:11:39.679Z,100766.13
2018-12-10T08:14:07.251Z,100776.22
2018-12-10T08:16:34.767Z,100781.92
2018-12-10T08:19:02.310Z,100779.72
2018-12-10T08:21:29.845Z,100785.89
2018-12-10T08:23:57.391Z,100784.98
2018-12-10T08:26:24.915Z,100783.23
2018-12-10T08:29:00.005Z,100792.91
2018-12-10T08:31:21.996Z,100790.72
2018-12-10T08:33:49.524Z,100792.03
2018-12-10T08:36:17.203Z,100792.91
2018-12-10T08:38:44.730Z,100794.67
2018-12-10T08:41:12.248Z,100788.52
2018-12-10T08:43:39.815Z,100792.45
2018-12-10T08:46:07.339Z,100790.67
2018-12-10T08:48:35.196Z,100797.30
2018-12-10T08:51:02.873Z,100789.81
2018-12-10T08:53:30.583Z,100795.99
2018-12-10T08:55:58.167Z,100792.02
2018-12-10T08:58:25.691Z,100795.58
2018-12-10T09:00:53.283Z,100803.00
2018-12-10T09:03:20.803Z,100798.64
2018-12-10T09:05:48.326Z,100805.19
2018-12-10T09:08:15.965Z,100807.79
2018-12-10T09:10:43.483Z,100818.83
2018-12-10T09:13:11.061Z,100818.80
2018-12-10T09:15:38.583Z,100820.55
2018-12-10T09:18:06.101Z,100828.92
2018-12-10T09:20:33.655Z,100829.76
2018-12-10T09:23:01.184Z,100834.16
2018-12-10T09:25:28.899Z,100835.89
2018-12-10T09:27:56.418Z,100840.30
2018-12-10T09:30:23.963Z,100846.95
2018-12-10T09:32:51.499Z,100853.52
2018-12-10T09:35:19.014Z,100853.12
2018-12-10T09:37:46.567Z,100857.51
2018-12-10T09:40:14.080Z,100859.73
2018-12-10T09:42:41.592Z,100859.73
2018-12-10T09:45:09.253Z,100862.78
2018-12-10T09:47:36.767Z,100864.94
2018-12-10T09:50:06.951Z,100861.47
2018-12-10T09:52:34.480Z,100862.80
2018-12-10T09:55:02.140Z,100861.47
2018-12-10T09:57:29.687Z,100862.80
2018-12-10T09:59:57.199Z,100861.06
2018-12-10T10:02:25.055Z,100860.60
2018-12-10T10:04:52.569Z,100861.05
2018-12-10T10:07:28.264Z,100869.38
2018-12-10T10:09:49.651Z,100859.70
2018-12-10T10:12:17.161Z,100862.77
2018-12-10T10:14:44.867Z,100864.94
2018-12-10T10:17:12.411Z,100860.09
2018-12-10T10:19:39.924Z,100854.75
2018-12-10T10:22:07.471Z,100855.16
2018-12-10T10:24:34.980Z,100856.48
2018-12-10T10:27:02.812Z,100864.41
2018-12-10T10:29:30.331Z,100856.05
2018-12-10T10:31:57.835Z,100868.80
2018-12-10T10:34:25.383Z,100870.13
2018-12-10T10:36:52.889Z,100872.70
2018-12-10T10:39:20.439Z,100875.33
2018-12-10T10:41:47.960Z,100869.09
2018-12-10T10:44:15.471Z,100869.61
2018-12-10T10:46:43.007Z,100866.53
2018-12-10T10:49:10.544Z,100856.02
2018-12-10T10:51:38.233Z,100850.61
2018-12-10T10:54:05.754Z,100850.94
2018-12-10T10:56:33.271Z,100855.76
2018-12-10T10:59:00.809Z,100844.70
2018-12-10T11:01:33.872Z,100838.08
2018-12-10T11:04:01.734Z,100838.88
2018-12-10T11:06:29.255Z,100837.06
2018-12-10T11:08:56.767Z,100838.00
2018-12-10T11:11:24.309Z,100830.01
2018-12-10T11:13:51.815Z,100828.17
2018-12-10T11:16:19.382Z,100832.64
2018-12-10T11:18:46.891Z,100825.59
2018-12-10T11:21:14.401Z,100831.27
2018-12-10T11:23:41.973Z,100824.55
2018-12-10T11:26:09.479Z,100824.34
2018-12-10T11:28:37.024Z,100826.56
2018-12-10T11:31:04.687Z,100827.51
2018-12-10T11:33:32.228Z,100824.98
2018-12-10T11:35:59.863Z,100816.92
2018-12-10T11:38:27.371Z,100820.85
2018-12-10T11:40:55.224Z,100814.98
2018-12-10T11:43:22.723Z,100818.12
2018-12-10T11:45:50.229Z,100812.80
2018-12-10T11:48:17.771Z,100807.58
2018-12-10T11:50:45.296Z,100801.34
2018-12-10T11:53:13.131Z,100800.53
2018-12-10T11:55:40.636Z,100796.91
2018-12-10T11:58:08.136Z,100802.38
2018-12-10T12:00:35.816Z,100805.84
2018-12-10T12:03:03.327Z,100806.72
2018-12-10T12:05:31.023Z,100801.42
2018-12-10T12:07:58.527Z,100792.67
2018-12-10T12:10:26.036Z,100796.99
2018-12-10T12:12:53.591Z,100786.23
2018-12-10T12:15:21.096Z,100783.01
2018-12-10T12:17:48.683Z,100780.94
2018-12-10T12:20:16.184Z,100768.03
2018-12-10T12:22:43.707Z,100769.78
2018-12-10T12:25:11.239Z,100765.90
2018-12-10T12:27:38.748Z,100760.16
2018-12-10T12:30:07.817Z,100762.23
2018-12-10T12:32:35.352Z,100757.02
2018-12-10T12:35:02.877Z,100762.23
2018-12-10T12:37:30.431Z,100764.38
2018-12-10T12:39:57.962Z,100763.14
2018-12-10T12:42:25.500Z,100765.77
2018-12-10T12:44:53.007Z,100766.64
2018-12-10T12:47:20.584Z,100752.57
2018-12-10T12:49:48.217Z,100758.27
2018-12-10T12:52:15.737Z,100762.66
2018-12-10T12:54:43.272Z,100749.54
2018-12-10T12:57:10.808Z,100751.90
2018-12-10T12:59:38.340Z,100740.90
2018-12-10T13:02:05.872Z,100745.31
2018-12-10T13:04:33.583Z,100735.63
2018-12-10T13:07:01.099Z,100735.74
2018-12-10T13:09:28.614Z,100733.62
2018-12-10T13:11:56.151Z,100735.72
2018-12-10T13:14:23.672Z,100734.45
2018-12-10T13:16:51.206Z,100741.91
2018-12-10T13:19:18.709Z,100737.96
2018-12-10T13:21:46.303Z,100741.99
2018-12-10T13:24:13.811Z,100747.79
2018-12-10T13:26:41.320Z,100744.67
2018-12-10T13:29:08.906Z,100739.33
2018-12-10T13:31:36.712Z,100737.70
2018-12-10T13:34:04.503Z,100737.20
2018-12-10T13:36:32.020Z,100742.19
2018-12-10T13:38:59.613Z,100732.07
2018-12-10T13:41:27.162Z,100735.59
2018-12-10T13:43:54.677Z,100738.23
2018-12-10T13:46:22.223Z,100732.84
2018-12-10T13:48:49.729Z,100730.59
2018-12-10T13:51:17.239Z,100733.09
2018-12-10T13:53:44.819Z,100720.31
2018-12-10T13:56:12.333Z,100719.52
2018-12-10T13:58:39.871Z,100726.95
2018-12-10T14:01:08.377Z,100715.56
2018-12-10T14:03:36.075Z,100717.44
2018-12-10T14:06:03.619Z,100723.59
2018-12-10T14:08:31.137Z,100718.78
2018-12-10T14:10:58.687Z,100725.77
2018-12-10T14:13:26.191Z,100723.91
2018-12-10T14:15:53.700Z,100724.30
2018-12-10T14:18:21.251Z,100723.52
2018-12-10T14:20:48.767Z,100719.48
2018-12-10T14:23:16.307Z,100724.87
2018-12-10T14:25:43.836Z,100721.77
2018-12-10T14:28:11.440Z,100721.87
2018-12-10T14:30:39.284Z,100720.19
2018-12-10T14:33:06.792Z,100721.48
2018-12-10T14:35:34.324Z,100715.73
2018-12-10T14:38:01.835Z,100713.38
2018-12-10T14:40:29.389Z,100713.88
2018-12-10T14:42:57.020Z,100716.99
2018-12-10T14:45:24.675Z,100728.08
2018-12-10T14:47:52.498Z,100725.45
2018-12-10T14:50:20.213Z,100721.45
2018-12-10T14:52:47.929Z,100726.33
2018-12-10T14:55:15.547Z,100728.53
2018-12-10T14:57:43.051Z,100744.44
2018-12-10T15:00:11.091Z,100730.30
2018-12-10T15:02:38.591Z,100734.27
2018-12-10T15:05:07.283Z,100732.89
2018-12-10T15:07:34.800Z,100731.56
2018-12-10T15:10:02.423Z,100734.38
2018-12-10T15:12:29.964Z,100729.52
2018-12-10T15:14:57.473Z,100734.38
2018-12-10T15:17:25.391Z,100726.02
2018-12-10T15:19:52.893Z,100726.89
2018-12-10T15:22:20.392Z,100729.98
2018-12-10T15:24:47.928Z,100731.36
2018-12-10T15:27:15.439Z,100726.46
2018-12-10T15:29:43.019Z,100729.10
2018-12-10T15:32:10.522Z,100727.86
2018-12-10T15:34:38.056Z,100736.97
2018-12-10T15:37:05.587Z,100732.06
2018-12-10T15:39:33.088Z,100732.66
2018-12-10T15:42:00.659Z,100740.12
2018-12-10T15:44:28.196Z,100752.55
2018-12-10T15:46:55.699Z,100753.88
2018-12-10T15:49:23.248Z,100755.16
2018-12-10T15:51:50.768Z,100771.52
2018-12-10T15:54:18.343Z,100777.56
2018-12-10T15:56:45.865Z,100788.83
2018-12-10T15:59:13.373Z,100808.25
2018-12-10T16:01:40.921Z,100832.38
2018-12-10T16:04:08.435Z,100844.13
2018-12-10T16:06:36.275Z,100826.67
2018-12-10T16:09:06.609Z,100828.88
2018-12-10T16:11:34.223Z,100838.58
2018-12-10T16:14:01.775Z,100832.84
2018-12-10T16:16:29.324Z,100834.19
2018-12-10T16:18:57.067Z,100831.97
2018-12-10T16:21:24.584Z,100832.41
2018-12-10T16:23:52.103Z,100847.80
2018-12-10T16:26:19.675Z,100843.00
2018-12-10T16:28:47.199Z,100841.67
2018-12-10T16:31:14.951Z,100833.77
2018-12-10T16:33:42.477Z,100828.42
2018-12-10T16:36:10.711Z,100832.78
2018-12-10T16:38:38.269Z,100835.49
2018-12-10T16:41:05.787Z,100838.17
2018-12-10T16:43:33.668Z,100835.97
2018-12-10T16:46:01.197Z,100828.88
2018-12-10T16:48:28.711Z,100837.31
2018-12-10T16:50:56.263Z,100837.30
2018-12-10T16:53:23.819Z,100838.19
2018-12-10T16:55:51.464Z,100829.81
2018-12-10T16:58:18.986Z,100835.56
2018-12-10T17:00:46.528Z,100837.75
2018-12-10T17:03:14.063Z,100847.42
2018-12-10T17:05:41.580Z,100855.77
2018-12-10T17:08:09.123Z,100861.46
2018-12-10T17:10:36.661Z,100858.82
2018-12-10T17:13:04.175Z,100858.84
2018-12-10T17:15:31.725Z,100862.36
2018-12-10T17:17:59.255Z,100860.11
2018-12-10T17:20:28.210Z,100864.51
2018-12-10T17:22:55.846Z,100870.19
2018-12-10T17:25:23.383Z,100866.67
2018-12-10T17:27:50.935Z,100867.07
2018-12-10T17:30:18.479Z,100869.74
2018-12-10T17:32:46.153Z,100871.94
2018-12-10T17:35:13.683Z,100876.33
2018-12-10T17:37:41.202Z,100873.66
2018-12-10T17:40:08.963Z,100878.05
2018-12-10T17:42:36.476Z,100883.31
2018-12-10T17:45:06.153Z,100886.44
2018-12-10T17:47:33.667Z,100886.47
2018-12-10T17:50:01.589Z,100886.52
2018-12-10T17:52:29.135Z,100886.03
2018-12-10T17:54:56.651Z,100878.16
2018-12-10T17:57:24.368Z,100877.72
2018-12-10T17:59:52.675Z,100885.64
2018-12-10T18:02:20.202Z,100883.45
2018-12-10T18:04:47.947Z,100871.56
2018-12-10T18:07:15.602Z,100875.52
2018-12-10T18:09:43.173Z,100870.22
2018-12-10T18:12:10.715Z,100871.98
2018-12-10T18:14:38.248Z,100872.88
2018-12-10T18:17:05.807Z,100881.61
2018-12-10T18:19:33.332Z,100871.50
2018-12-10T18:22:00.894Z,100871.94
2018-12-10T18:24:28.438Z,100876.33
2018-12-10T18:26:55.972Z,100879.41
2018-12-10T18:29:23.553Z,100875.41
2018-12-10T18:31:51.098Z,100874.97
2018-12-10T18:34:18.656Z,100879.75
2018-12-10T18:36:46.174Z,100884.19
2018-12-10T18:39:13.692Z,100887.70
2018-12-10T18:41:41.249Z,100898.33
2018-12-10T18:44:08.759Z,100897.41
2018-12-10T18:46:36.373Z,100905.31
2018-12-10T18:49:03.906Z,100900.92
2018-12-10T18:51:31.421Z,100897.80
2018-12-10T18:53:58.975Z,100905.66
2018-12-10T18:56:26.509Z,100897.36
2018-12-10T18:58:54.699Z,100891.59
2018-12-10T19:01:22.216Z,100895.93
2018-12-10T19:03:49.744Z,100887.57
2018-12-10T19:06:17.300Z,100890.64
2018-12-10T19:08:46.250Z,100893.67
2018-12-10T19:11:14.084Z,100884.56
2018-12-10T19:13:41.643Z,100882.27
2018-12-10T19:16:10.045Z,100886.70
2018-12-10T19:18:37.594Z,100884.94
2018-12-10T19:21:05.111Z,100891.53
2018-12-10T19:23:32.831Z,100893.68
2018-12-10T19:26:00.361Z,100897.67
2018-12-10T19:28:27.880Z,100905.20
2018-12-10T19:30:55.445Z,100907.45
2018-12-10T19:33:22.956Z,100902.67
2018-12-10T19:35:50.507Z,100901.75
2018-12-10T19:38:18.136Z,100902.24
2018-12-10T19:40:45.658Z,100908.78
2018-12-10T19:43:13.218Z,100905.31
2018-12-10T19:45:40.747Z,100908.39
2018-12-10T19:48:08.640Z,100900.88
2018-12-10T19:50:36.154Z,100907.02
2018-12-10T19:53:03.688Z,100893.41
2018-12-10T19:55:31.236Z,100907.91
2018-12-10T19:57:58.751Z,100898.24
2018-12-10T20:00:26.335Z,100902.20
2018-12-10T20:02:53.847Z,100903.08
2018-12-10T20:05:23.364Z,100911.03
2018-12-10T20:07:50.916Z,100913.66
2018-12-10T20:10:18.444Z,100913.22
2018-12-10T20:12:46.108Z,100920.30
2018-12-10T20:15:13.657Z,100915.86
2018-12-10T20:17:41.167Z,100914.55
2018-12-10T20:20:08.941Z,100918.06
2018-12-10T20:22:36.455Z,100915.42
2018-12-10T20:25:04.930Z,100917.66
2018-12-10T20:27:32.501Z,100922.05
2018-12-10T20:30:00.117Z,100913.26
2018-12-10T20:32:27.681Z,100920.29
2018-12-10T20:34:55.320Z,100918.53
2018-12-10T20:37:22.889Z,100918.58
2018-12-10T20:39:51.099Z,100922.97
2018-12-10T20:42:18.616Z,100931.79
2018-12-10T20:44:46.171Z,100930.88
2018-12-10T20:47:13.692Z,100930.44
2018-12-10T20:49:41.237Z,100917.73
2018-12-10T20:52:08.748Z,100930.03
2018-12-10T20:54:36.275Z,100923.47
2018-12-10T20:57:03.815Z,100924.69
2018-12-10T20:59:31.340Z,100917.33
2018-12-10T21:01:58.880Z,100922.09
2018-12-10T21:04:26.391Z,100919.52
2018-12-10T21:06:53.940Z,100912.42
2018-12-10T21:09:21.456Z,100908.44
2018-12-10T21:11:48.995Z,100911.91
2018-12-10T21:14:16.535Z,100907.11
2018-12-10T21:16:44.054Z,100911.47
2018-12-10T21:19:11.595Z,100907.52
2018-12-10T21:21:39.171Z,100913.22
2018-12-10T21:24:06.756Z,100919.02
2018-12-10T21:26:34.290Z,100917.66
2018-12-10T21:29:01.809Z,100915.85
2018-12-10T21:31:29.356Z,100919.37
2018-12-10T21:33:56.875Z,100926.79
2018-12-10T21:36:24.426Z,100933.38
2018-12-10T21:38:51.946Z,100937.75
2018-12-10T21:41:19.490Z,100928.91
2018-12-10T21:43:47.035Z,100931.23
2018-12-10T21:46:14.548Z,100934.79
2018-12-10T21:48:42.236Z,100938.25
2018-12-10T21:51:09.775Z,100929.42
2018-12-10T21:53:37.291Z,100931.61
2018-12-10T21:56:04.937Z,100945.21
2018-12-10T21:58:32.457Z,100940.33
2018-12-10T22:01:00.011Z,100936.83
2018-12-10T22:03:27.538Z,100931.61
2018-12-10T22:05:55.054Z,100934.19
2018-12-10T22:08:22.610Z,100927.65
2018-12-10T22:10:50.131Z,100927.33
2018-12-10T22:13:17.672Z,100927.31
2018-12-10T22:15:45.198Z,100923.66
2018-12-10T22:18:12.848Z,100926.28
2018-12-10T22:20:40.359Z,100918.76
2018-12-10T22:23:07.887Z,100916.99
2018-12-10T22:25:35.431Z,100914.86
2018-12-10T22:28:02.967Z,100920.56
2018-12-10T22:30:30.785Z,100925.82
2018-12-10T22:32:58.402Z,100931.55
2018-12-10T22:35:25.940Z,100935.50
2018-12-10T22:37:53.503Z,100937.25
2018-12-10T22:40:21.024Z,100935.56
2018-12-10T22:42:48.581Z,100931.53
2018-12-10T22:45:16.092Z,100928.47
2018-12-10T22:47:43.608Z,100928.91
2018-12-10T22:50:11.159Z,100925.85
2018-12-10T22:52:38.685Z,100925.83
2018-12-10T22:55:06.340Z,100933.73
2018-12-10T22:57:33.860Z,100927.52
2018-12-10T23:00:01.380Z,100932.33
2018-12-10T23:02:29.224Z,100934.63
2018-12-10T23:04:56.723Z,100934.56
2018-12-10T23:07:24.450Z,100928.84
2018-12-10T23:09:52.448Z,100930.61
2018-12-10T23:12:19.964Z,100927.52
2018-12-10T23:14:47.507Z,100931.05
2018-12-10T23:17:15.020Z,100927.96
2018-12-10T23:19:42.566Z,100925.77
2018-12-10T23:22:10.082Z,100920.12
2018-12-10T23:24:37.635Z,100925.78
2018-12-10T23:27:05.155Z,100919.20
2018-12-10T23:29:32.672Z,100914.80
2018-12-10T23:32:00.211Z,100914.86
2018-12-10T23:34:27.738Z,100916.13
2018-12-10T23:36:55.279Z,100917.05
2018-12-10T23:39:22.792Z,100912.67
2018-12-10T23:41:50.305Z,100917.42
2018-12-10T23:44:23.499Z,100917.41
2018-12-10T23:46:51.035Z,100915.22
2018-12-10T23:49:18.578Z,100925.27
2018-12-10T23:51:46.084Z,100922.17
2018-12-10T23:54:13.628Z,100927.46
2018-12-10T23:56:41.143Z,100929.19
2018-12-10T23:59:08.654Z,100931.40
